createdAt,value
2023-07-25T00:00:40.634Z,23.57
2023-07-25T00:03:07.324Z,23.57
2023-07-25T00:05:33.944Z,23.58
2023-07-25T00:08:00.523Z,23.56
2023-07-25T00:10:27.110Z,23.58
2023-07-25T00:12:56.185Z,23.56
2023-07-25T00:15:23.140Z,23.55
2023-07-25T00:17:50.998Z,23.54
2023-07-25T00:20:17.864Z,23.52
2023-07-25T00:22:44.540Z,23.50
2023-07-25T00:25:11.499Z,23.47
2023-07-25T00:27:38.156Z,23.42
2023-07-25T00:30:05.573Z,23.42
2023-07-25T00:32:34.873Z,23.41
2023-07-25T00:35:02.998Z,23.38
2023-07-25T00:37:30.648Z,23.35
2023-07-25T00:39:57.770Z,23.30
2023-07-25T00:42:24.885Z,23.31
2023-07-25T00:44:51.974Z,23.36
2023-07-25T00:47:23.694Z,23.42
2023-07-25T00:49:52.010Z,23.45
2023-07-25T00:52:19.012Z,23.49
2023-07-25T00:54:48.723Z,23.51
2023-07-25T00:57:19.719Z,23.52
2023-07-25T00:59:47.676Z,23.49
2023-07-25T01:02:15.425Z,23.47
2023-07-25T01:04:43.094Z,23.46
2023-07-25T01:07:13.501Z,23.42
2023-07-25T01:09:50.089Z,23.41
2023-07-25T01:12:16.697Z,23.35
2023-07-25T01:14:44.561Z,23.16
2023-07-25T01:17:16.599Z,23.03
2023-07-25T01:19:45.401Z,22.83
2023-07-25T01:22:12.691Z,22.56
2023-07-25T01:24:47.126Z,22.40
2023-07-25T01:27:16.999Z,22.36
2023-07-25T01:29:44.238Z,22.29
2023-07-25T01:32:11.334Z,22.19
2023-07-25T01:34:38.224Z,22.09
2023-07-25T01:37:07.170Z,21.95
2023-07-25T01:39:33.857Z,21.88
2023-07-25T01:42:00.438Z,21.79
2023-07-25T01:44:26.991Z,21.85
2023-07-25T01:46:56.205Z,21.90
2023-07-25T01:49:22.818Z,21.96
2023-07-25T01:51:49.452Z,22.01
2023-07-25T01:54:17.972Z,21.92
2023-07-25T01:56:44.977Z,21.86
2023-07-25T01:59:13.394Z,21.83
2023-07-25T02:01:40.178Z,21.82
2023-07-25T02:04:07.126Z,21.85
2023-07-25T02:06:33.760Z,21.79
2023-07-25T02:09:00.341Z,21.70
2023-07-25T02:11:26.972Z,21.66
2023-07-25T02:13:53.540Z,21.67
2023-07-25T02:16:20.961Z,21.63
2023-07-25T02:18:47.603Z,21.40
2023-07-25T02:21:14.289Z,21.23
2023-07-25T02:23:40.901Z,21.17
2023-07-25T02:26:07.529Z,21.08
2023-07-25T02:28:34.092Z,21.04
2023-07-25T02:31:00.684Z,21.05
2023-07-25T02:33:27.323Z,21.10
2023-07-25T02:35:53.964Z,21.09
2023-07-25T02:38:20.585Z,20.98
2023-07-25T02:40:47.508Z,20.84
2023-07-25T02:43:14.179Z,20.86
2023-07-25T02:45:40.831Z,20.83
2023-07-25T02:48:07.429Z,20.83
2023-07-25T02:50:34.043Z,20.84
2023-07-25T02:53:00.661Z,20.84
2023-07-25T02:55:27.292Z,20.77
2023-07-25T02:57:53.918Z,20.70
2023-07-25T03:00:20.566Z,20.66
2023-07-25T03:02:47.219Z,20.65
2023-07-25T03:05:13.928Z,20.64
2023-07-25T03:07:40.502Z,20.58
2023-07-25T03:10:07.845Z,20.55
2023-07-25T03:12:34.551Z,20.51
2023-07-25T03:15:01.561Z,20.49
2023-07-25T03:17:28.752Z,20.41
2023-07-25T03:19:55.402Z,20.32
2023-07-25T03:22:22.206Z,20.21
2023-07-25T03:24:49.701Z,20.11
2023-07-25T03:27:17.474Z,20.04
2023-07-25T03:29:44.195Z,19.95
2023-07-25T03:32:10.972Z,19.95
2023-07-25T03:34:37.631Z,19.95
2023-07-25T03:37:04.527Z,19.86
2023-07-25T03:39:31.304Z,19.93
2023-07-25T03:41:57.978Z,20.02
2023-07-25T03:44:24.594Z,20.06
2023-07-25T03:46:51.311Z,20.11
2023-07-25T03:49:18.053Z,20.16
2023-07-25T03:51:44.727Z,20.19
2023-07-25T03:54:11.521Z,20.22
2023-07-25T03:56:38.151Z,20.21
2023-07-25T03:59:04.857Z,20.14
2023-07-25T04:01:32.082Z,20.12
2023-07-25T04:03:59.054Z,20.12
2023-07-25T04:06:26.123Z,20.10
2023-07-25T04:08:52.808Z,20.09
2023-07-25T04:11:19.421Z,20.08
2023-07-25T04:13:46.118Z,20.08
2023-07-25T04:16:12.807Z,20.13
2023-07-25T04:18:39.529Z,20.14
2023-07-25T04:21:06.156Z,20.17
2023-07-25T04:23:32.765Z,20.20
2023-07-25T04:25:59.397Z,20.14
2023-07-25T04:28:25.999Z,20.11
2023-07-25T04:30:52.654Z,20.10
2023-07-25T04:33:19.264Z,20.09
2023-07-25T04:35:46.559Z,20.14
2023-07-25T04:38:14.787Z,20.18
2023-07-25T04:40:42.850Z,20.22
2023-07-25T04:43:09.463Z,20.25
2023-07-25T04:45:36.736Z,20.21
2023-07-25T04:48:03.636Z,20.19
2023-07-25T04:50:30.420Z,20.23
2023-07-25T04:52:57.033Z,20.25
2023-07-25T04:55:23.680Z,20.32
2023-07-25T04:57:52.429Z,20.35
2023-07-25T05:00:19.101Z,20.41
2023-07-25T05:02:48.027Z,20.46
2023-07-25T05:05:14.684Z,20.51
2023-07-25T05:07:41.290Z,20.55
2023-07-25T05:10:08.435Z,20.62
2023-07-25T05:12:35.041Z,20.63
2023-07-25T05:15:01.601Z,20.63
2023-07-25T05:17:28.208Z,20.66
2023-07-25T05:19:54.837Z,20.73
2023-07-25T05:22:21.509Z,20.77
2023-07-25T05:24:48.140Z,20.82
2023-07-25T05:27:14.898Z,20.88
2023-07-25T05:29:41.533Z,20.94
2023-07-25T05:32:08.525Z,21.00
2023-07-25T05:34:35.159Z,21.03
2023-07-25T05:37:02.203Z,21.11
2023-07-25T05:39:28.818Z,21.18
2023-07-25T05:41:55.421Z,21.26
2023-07-25T05:44:22.032Z,21.33
2023-07-25T05:46:48.691Z,21.40
2023-07-25T05:49:15.330Z,21.50
2023-07-25T05:51:41.924Z,21.57
2023-07-25T05:54:08.900Z,21.67
2023-07-25T05:56:35.525Z,21.77
2023-07-25T05:59:02.198Z,21.85
2023-07-25T06:01:28.879Z,21.95
2023-07-25T06:03:55.641Z,22.09
2023-07-25T06:06:22.375Z,22.17
2023-07-25T06:08:48.968Z,22.23
2023-07-25T06:11:16.849Z,22.28
2023-07-25T06:13:43.620Z,22.37
2023-07-25T06:16:10.249Z,22.45
2023-07-25T06:18:36.827Z,22.52
2023-07-25T06:21:03.479Z,22.64
2023-07-25T06:23:30.067Z,22.74
2023-07-25T06:25:56.682Z,22.79
2023-07-25T06:28:23.236Z,22.86
2023-07-25T06:30:49.998Z,22.92
2023-07-25T06:33:16.842Z,22.93
2023-07-25T06:35:43.493Z,22.96
2023-07-25T06:38:10.132Z,23.00
2023-07-25T06:40:36.797Z,23.05
2023-07-25T06:43:03.501Z,23.13
2023-07-25T06:45:30.182Z,23.19
2023-07-25T06:47:56.851Z,23.28
2023-07-25T06:50:23.524Z,23.34
2023-07-25T06:52:50.186Z,23.45
2023-07-25T06:55:20.214Z,23.55
2023-07-25T06:57:47.278Z,23.66
2023-07-25T07:00:14.837Z,23.74
2023-07-25T07:02:42.724Z,23.82
2023-07-25T07:05:28.955Z,23.92
2023-07-25T07:07:56.005Z,23.98
2023-07-25T07:10:22.710Z,24.05
2023-07-25T07:12:49.604Z,24.18
2023-07-25T07:15:16.422Z,24.26
2023-07-25T07:17:43.331Z,24.34
2023-07-25T07:20:10.524Z,24.47
2023-07-25T07:22:37.411Z,24.59
2023-07-25T07:25:04.498Z,24.73
2023-07-25T07:27:31.085Z,24.85
2023-07-25T07:29:57.710Z,25.00
2023-07-25T07:32:24.382Z,25.12
2023-07-25T07:34:50.999Z,25.29
2023-07-25T07:37:17.609Z,25.45
2023-07-25T07:39:44.278Z,25.52
2023-07-25T07:42:10.871Z,25.57
2023-07-25T07:44:37.482Z,25.60
2023-07-25T07:47:05.465Z,25.64
2023-07-25T07:49:35.076Z,25.71
2023-07-25T07:52:13.256Z,25.78
2023-07-25T07:54:44.042Z,25.78
2023-07-25T07:57:10.680Z,25.78
2023-07-25T07:59:37.326Z,25.73
2023-07-25T08:02:04.126Z,25.68
2023-07-25T08:04:31.690Z,25.64
2023-07-25T08:06:58.433Z,25.55
2023-07-25T08:09:28.468Z,25.46
2023-07-25T08:11:55.113Z,25.35
2023-07-25T08:14:22.016Z,25.22
2023-07-25T08:16:49.066Z,25.11
2023-07-25T08:19:16.595Z,25.01
2023-07-25T08:21:43.373Z,24.93
2023-07-25T08:24:10.142Z,24.85
2023-07-25T08:26:36.847Z,24.79
2023-07-25T08:29:03.736Z,24.74
2023-07-25T08:31:30.849Z,24.65
2023-07-25T08:33:57.975Z,24.57
2023-07-25T08:36:24.606Z,24.52
2023-07-25T08:38:51.225Z,24.47
2023-07-25T08:41:20.262Z,24.42
2023-07-25T08:43:48.532Z,24.37
2023-07-25T08:46:19.919Z,24.34
2023-07-25T08:48:49.116Z,24.27
2023-07-25T08:51:22.815Z,24.22
2023-07-25T08:54:06.800Z,24.17
2023-07-25T08:56:35.962Z,24.15
2023-07-25T08:59:04.467Z,24.06
2023-07-25T09:01:32.174Z,24.02
2023-07-25T09:04:05.015Z,23.96
2023-07-25T09:06:33.082Z,23.93
2023-07-25T09:09:00.068Z,23.79
2023-07-25T09:11:27.375Z,23.62
2023-07-25T09:13:54.355Z,23.36
2023-07-25T09:16:21.323Z,22.99
2023-07-25T09:18:47.970Z,22.77
2023-07-25T09:21:16.222Z,22.69
2023-07-25T09:23:55.601Z,22.51
2023-07-25T09:26:24.436Z,22.29
2023-07-25T09:28:58.940Z,22.16
2023-07-25T09:31:28.215Z,22.04
2023-07-25T09:33:56.576Z,21.94
2023-07-25T09:36:23.966Z,21.88
2023-07-25T09:38:55.156Z,21.71
2023-07-25T09:41:23.876Z,21.65
2023-07-25T09:43:51.887Z,21.72
2023-07-25T09:46:19.326Z,21.74
2023-07-25T09:48:47.985Z,21.76
2023-07-25T09:51:15.597Z,21.82
2023-07-25T09:53:50.666Z,21.88
2023-07-25T09:56:17.493Z,21.91
2023-07-25T09:58:55.001Z,21.99
2023-07-25T10:01:31.785Z,22.11
2023-07-25T10:03:58.927Z,22.17
2023-07-25T10:06:26.477Z,22.11
2023-07-25T10:08:54.378Z,22.14
2023-07-25T10:11:22.756Z,22.21
2023-07-25T10:13:51.606Z,22.31
2023-07-25T10:16:20.927Z,22.45
2023-07-25T10:18:54.542Z,22.50
2023-07-25T10:21:28.023Z,22.41
2023-07-25T10:24:04.123Z,22.32
2023-07-25T10:26:30.883Z,22.41
2023-07-25T10:29:00.613Z,22.46
2023-07-25T10:31:34.933Z,22.49
2023-07-25T10:34:03.525Z,22.56
2023-07-25T10:36:30.191Z,22.78
2023-07-25T10:39:07.149Z,22.92
2023-07-25T10:41:34.274Z,23.01
2023-07-25T10:44:03.338Z,23.11
2023-07-25T10:46:33.136Z,23.10
2023-07-25T10:49:05.339Z,23.19
2023-07-25T10:51:56.217Z,23.25
2023-07-25T10:54:25.295Z,23.34
2023-07-25T10:57:10.428Z,23.54
2023-07-25T11:00:09.709Z,23.70
2023-07-25T11:02:40.389Z,23.80
2023-07-25T11:05:13.190Z,24.00
2023-07-25T11:08:01.426Z,24.03
2023-07-25T11:10:30.112Z,24.00
2023-07-25T11:12:59.045Z,24.04
2023-07-25T11:15:40.685Z,24.04
2023-07-25T11:18:12.932Z,23.98
2023-07-25T11:20:41.993Z,23.91
2023-07-25T11:23:08.710Z,23.92
2023-07-25T11:25:35.764Z,24.02
2023-07-25T11:28:02.370Z,24.06
2023-07-25T11:30:29.002Z,24.07
2023-07-25T11:32:55.694Z,24.10
2023-07-25T11:35:25.473Z,24.10
2023-07-25T11:38:02.505Z,24.05
2023-07-25T11:40:30.231Z,24.09
2023-07-25T11:42:57.934Z,24.09
2023-07-25T11:45:24.776Z,24.09
2023-07-25T11:47:52.825Z,24.12
2023-07-25T11:50:26.787Z,24.15
2023-07-25T11:52:56.027Z,24.19
2023-07-25T11:55:22.862Z,24.26
2023-07-25T11:57:51.881Z,24.34
2023-07-25T12:00:18.586Z,24.49
2023-07-25T12:02:45.523Z,24.66
2023-07-25T12:05:31.705Z,24.76
2023-07-25T12:08:01.964Z,24.78
2023-07-25T12:10:33.775Z,24.74
2023-07-25T12:13:04.760Z,24.64
2023-07-25T12:15:56.178Z,24.52
2023-07-25T12:18:26.797Z,24.40
2023-07-25T12:20:59.484Z,24.38
2023-07-25T12:23:31.381Z,24.36
2023-07-25T12:26:00.652Z,24.29
2023-07-25T12:28:42.962Z,24.23
2023-07-25T12:31:09.762Z,24.16
2023-07-25T12:33:36.907Z,24.09
2023-07-25T12:36:04.872Z,24.03
2023-07-25T12:38:31.537Z,23.98
2023-07-25T12:40:58.180Z,23.96
2023-07-25T12:43:24.897Z,23.98
2023-07-25T12:45:51.672Z,23.89
2023-07-25T12:48:18.478Z,23.77
2023-07-25T12:50:45.154Z,23.73
2023-07-25T12:53:11.824Z,23.71
2023-07-25T12:55:38.988Z,23.67
2023-07-25T12:58:05.786Z,23.67
2023-07-25T13:00:32.746Z,23.60
2023-07-25T13:02:59.844Z,23.64
2023-07-25T13:05:29.723Z,23.80
2023-07-25T13:07:57.933Z,23.98
2023-07-25T13:10:25.845Z,24.12
2023-07-25T13:12:52.843Z,24.30
2023-07-25T13:15:19.578Z,24.44
2023-07-25T13:17:46.360Z,24.61
2023-07-25T13:20:13.055Z,24.65
2023-07-25T13:22:39.637Z,24.69
2023-07-25T13:25:06.482Z,24.73
2023-07-25T13:27:33.086Z,24.76
2023-07-25T13:30:00.089Z,24.76
2023-07-25T13:32:26.980Z,24.78
2023-07-25T13:34:53.663Z,24.62
2023-07-25T13:37:20.276Z,24.65
2023-07-25T13:39:46.910Z,24.83
2023-07-25T13:42:13.573Z,25.04
2023-07-25T13:44:40.261Z,25.07
2023-07-25T13:47:07.056Z,24.98
2023-07-25T13:49:33.660Z,25.02
2023-07-25T13:52:02.790Z,24.86
2023-07-25T13:54:31.460Z,24.56
2023-07-25T13:56:58.373Z,24.49
2023-07-25T13:59:24.968Z,24.42
2023-07-25T14:01:51.705Z,24.50
2023-07-25T14:04:18.455Z,24.67
2023-07-25T14:06:45.585Z,24.85
2023-07-25T14:09:12.259Z,24.84
2023-07-25T14:11:38.953Z,24.54
2023-07-25T14:14:05.675Z,24.44
2023-07-25T14:16:32.528Z,24.30
2023-07-25T14:18:59.166Z,24.13
2023-07-25T14:21:25.757Z,24.14
2023-07-25T14:23:52.363Z,24.18
2023-07-25T14:26:19.111Z,24.21
2023-07-25T14:28:46.482Z,24.25
2023-07-25T14:31:13.160Z,24.43
2023-07-25T14:33:40.135Z,24.80
2023-07-25T14:36:06.744Z,24.87
2023-07-25T14:38:33.372Z,24.81
2023-07-25T14:41:00.085Z,24.68
2023-07-25T14:43:26.743Z,24.67
2023-07-25T14:45:53.394Z,24.70
2023-07-25T14:48:20.130Z,24.81
2023-07-25T14:50:46.986Z,24.86
2023-07-25T14:53:13.700Z,25.41
2023-07-25T14:55:40.389Z,26.11
2023-07-25T14:58:06.999Z,26.84
2023-07-25T15:00:33.630Z,29.29
2023-07-25T15:03:00.390Z,30.42
2023-07-25T15:05:27.028Z,31.28
2023-07-25T15:07:54.183Z,31.58
2023-07-25T15:10:20.789Z,32.02
2023-07-25T15:12:47.458Z,32.22
2023-07-25T15:15:14.381Z,32.38
2023-07-25T15:17:41.088Z,32.70
2023-07-25T15:20:11.560Z,33.20
2023-07-25T15:22:38.942Z,33.64
2023-07-25T15:25:06.118Z,32.58
2023-07-25T15:27:32.769Z,31.47
2023-07-25T15:29:59.373Z,31.44
2023-07-25T15:32:26.055Z,30.61
2023-07-25T15:34:52.737Z,30.13
2023-07-25T15:37:19.426Z,29.72
2023-07-25T15:39:46.041Z,29.14
2023-07-25T15:42:13.002Z,28.75
2023-07-25T15:44:39.805Z,28.46
2023-07-25T15:47:06.911Z,28.13
2023-07-25T15:49:33.522Z,27.97
2023-07-25T15:52:00.511Z,27.80
2023-07-25T15:54:28.029Z,27.64
2023-07-25T15:56:55.029Z,27.43
2023-07-25T15:59:23.326Z,26.94
2023-07-25T16:01:52.221Z,26.56
2023-07-25T16:04:20.268Z,26.32
2023-07-25T16:06:47.948Z,25.92
2023-07-25T16:09:15.184Z,25.81
2023-07-25T16:11:42.029Z,25.70
2023-07-25T16:14:08.808Z,25.65
2023-07-25T16:16:35.622Z,26.19
2023-07-25T16:19:02.280Z,27.13
2023-07-25T16:21:32.187Z,27.64
2023-07-25T16:23:59.173Z,27.68
2023-07-25T16:26:25.790Z,27.46
2023-07-25T16:28:52.915Z,27.82
2023-07-25T16:31:31.738Z,27.97
2023-07-25T16:33:59.505Z,27.59
2023-07-25T16:36:26.161Z,27.71
2023-07-25T16:38:54.059Z,27.46
2023-07-25T16:41:20.783Z,27.06
2023-07-25T16:43:47.433Z,26.99
2023-07-25T16:46:14.213Z,26.92
2023-07-25T16:48:40.831Z,26.94
2023-07-25T16:51:08.388Z,26.71
2023-07-25T16:53:35.046Z,26.56
2023-07-25T16:56:01.762Z,26.58
2023-07-25T16:58:28.331Z,26.48
2023-07-25T17:00:57.015Z,26.26
2023-07-25T17:03:24.618Z,26.14
2023-07-25T17:05:51.452Z,26.01
2023-07-25T17:08:20.480Z,25.67
2023-07-25T17:10:47.650Z,25.26
2023-07-25T17:13:15.819Z,25.07
2023-07-25T17:17:21.135Z,24.61
2023-07-25T17:19:47.775Z,24.57
2023-07-25T17:22:14.494Z,24.52
2023-07-25T17:24:41.160Z,24.42
2023-07-25T17:27:07.925Z,24.32
2023-07-25T17:29:34.528Z,24.33
2023-07-25T17:32:02.063Z,24.37
2023-07-25T17:34:29.944Z,24.26
2023-07-25T17:36:56.690Z,24.12
2023-07-25T17:39:23.337Z,23.94
2023-07-25T17:41:49.921Z,23.81
2023-07-25T17:44:16.654Z,23.69
2023-07-25T17:46:43.276Z,23.70
2023-07-25T17:49:09.944Z,23.71
2023-07-25T17:51:36.582Z,23.62
2023-07-25T17:54:03.305Z,23.56
2023-07-25T17:56:29.958Z,23.55
2023-07-25T17:58:56.643Z,23.43
2023-07-25T18:01:23.358Z,23.31
2023-07-25T18:03:50.116Z,23.27
2023-07-25T18:06:16.961Z,23.26
2023-07-25T18:08:43.860Z,23.28
2023-07-25T18:11:10.536Z,23.34
2023-07-25T18:13:37.224Z,23.40
2023-07-25T18:16:03.895Z,23.35
2023-07-25T18:18:30.576Z,23.33
2023-07-25T18:20:57.184Z,23.23
2023-07-25T18:23:25.416Z,23.18
2023-07-25T18:25:52.360Z,23.14
2023-07-25T18:28:18.943Z,23.12
2023-07-25T18:30:45.593Z,23.04
2023-07-25T18:33:14.283Z,22.98
2023-07-25T18:35:41.944Z,22.91
2023-07-25T18:38:08.657Z,22.84
2023-07-25T18:40:37.229Z,22.71
2023-07-25T18:43:07.079Z,22.58
2023-07-25T18:45:33.977Z,22.43
2023-07-25T18:48:00.614Z,22.35
2023-07-25T18:50:28.735Z,22.29
2023-07-25T18:52:55.450Z,22.18
2023-07-25T18:55:22.085Z,22.09
2023-07-25T18:57:48.667Z,22.04
2023-07-25T19:00:15.606Z,21.98
2023-07-25T19:02:42.297Z,21.89
2023-07-25T19:05:09.495Z,21.81
2023-07-25T19:07:36.090Z,21.72
2023-07-25T19:10:02.761Z,21.63
2023-07-25T19:12:29.341Z,21.62
2023-07-25T19:14:55.971Z,21.62
2023-07-25T19:17:22.631Z,21.47
2023-07-25T19:19:49.299Z,21.44
2023-07-25T19:22:16.006Z,21.43
2023-07-25T19:24:42.703Z,21.44
2023-07-25T19:27:09.367Z,21.46
2023-07-25T19:29:36.471Z,21.47
2023-07-25T19:32:03.449Z,21.46
2023-07-25T19:34:30.162Z,21.46
2023-07-25T19:36:56.819Z,21.42
2023-07-25T19:39:23.384Z,21.32
2023-07-25T19:41:52.924Z,21.25
2023-07-25T19:44:20.732Z,21.16
2023-07-25T19:46:47.354Z,21.12
2023-07-25T19:49:13.970Z,21.08
2023-07-25T19:51:40.608Z,21.07
2023-07-25T19:54:07.287Z,21.10
2023-07-25T19:56:34.932Z,21.02
2023-07-25T19:59:02.166Z,21.01
2023-07-25T20:01:30.272Z,20.96
2023-07-25T20:03:56.950Z,20.93
2023-07-25T20:06:24.317Z,20.91
2023-07-25T20:08:51.307Z,20.90
2023-07-25T20:11:17.967Z,20.85
2023-07-25T20:13:44.623Z,20.83
2023-07-25T20:16:11.295Z,20.77
2023-07-25T20:18:37.951Z,20.74
2023-07-25T20:21:12.231Z,20.73
2023-07-25T20:23:39.242Z,20.70
2023-07-25T20:26:05.951Z,20.65
2023-07-25T20:28:32.711Z,20.62
2023-07-25T20:31:00.949Z,20.64
2023-07-25T20:33:27.602Z,20.62
2023-07-25T20:35:54.240Z,20.51
2023-07-25T20:38:20.820Z,20.41
2023-07-25T20:40:47.467Z,20.34
2023-07-25T20:43:14.080Z,20.29
2023-07-25T20:45:40.719Z,20.16
2023-07-25T20:48:07.632Z,20.03
2023-07-25T20:50:34.339Z,19.91
2023-07-25T20:53:02.699Z,19.86
2023-07-25T20:55:30.369Z,19.75
2023-07-25T20:57:57.054Z,19.71
2023-07-25T21:00:23.680Z,19.67
2023-07-25T21:02:50.667Z,19.68
2023-07-25T21:05:17.942Z,19.68
2023-07-25T21:07:44.627Z,19.63
2023-07-25T21:10:11.306Z,19.61
2023-07-25T21:12:39.058Z,19.69
2023-07-25T21:15:08.427Z,19.75
2023-07-25T21:17:35.364Z,19.79
2023-07-25T21:20:03.762Z,19.78
2023-07-25T21:22:30.439Z,19.68
2023-07-25T21:24:57.350Z,19.51
2023-07-25T21:27:24.028Z,19.44
2023-07-25T21:29:50.677Z,19.37
2023-07-25T21:32:17.305Z,19.38
2023-07-25T21:34:44.131Z,19.40
2023-07-25T21:37:10.929Z,19.41
2023-07-25T21:39:37.542Z,19.40
2023-07-25T21:42:04.287Z,19.38
2023-07-25T21:44:30.980Z,19.42
2023-07-25T21:46:57.723Z,19.47
2023-07-25T21:49:24.477Z,19.50
2023-07-25T21:51:51.130Z,19.51
2023-07-25T21:54:17.944Z,19.48
2023-07-25T21:56:44.570Z,19.49
2023-07-25T21:59:11.204Z,19.43
2023-07-25T22:01:40.031Z,19.38
2023-07-25T22:04:09.060Z,19.36
2023-07-25T22:06:36.403Z,19.36
2023-07-25T22:09:03.140Z,19.38
2023-07-25T22:11:29.838Z,19.36
2023-07-25T22:13:56.505Z,19.34
2023-07-25T22:16:23.909Z,19.30
2023-07-25T22:18:50.639Z,19.25
2023-07-25T22:21:19.956Z,19.26
2023-07-25T22:23:46.688Z,19.26
2023-07-25T22:26:13.348Z,19.19
2023-07-25T22:28:39.982Z,19.18
2023-07-25T22:31:06.668Z,19.17
2023-07-25T22:33:33.369Z,19.16
2023-07-25T22:36:00.036Z,19.18
2023-07-25T22:38:26.652Z,19.17
2023-07-25T22:40:53.238Z,19.16
2023-07-25T22:43:19.841Z,19.14
2023-07-25T22:45:46.454Z,19.16
2023-07-25T22:48:13.095Z,19.16
2023-07-25T22:50:39.681Z,19.15
2023-07-25T22:53:06.350Z,19.15
2023-07-25T22:55:33.883Z,19.11
2023-07-25T22:58:00.661Z,19.05
2023-07-25T23:00:27.311Z,18.93
2023-07-25T23:02:54.456Z,18.91
2023-07-25T23:05:21.231Z,18.94
2023-07-25T23:07:47.845Z,18.98
2023-07-25T23:10:14.748Z,18.99
2023-07-25T23:12:41.630Z,18.97
2023-07-25T23:15:11.312Z,18.86
2023-07-25T23:17:38.031Z,18.78
2023-07-25T23:20:05.048Z,18.75
2023-07-25T23:22:31.880Z,18.73
2023-07-25T23:24:59.073Z,18.72
2023-07-25T23:27:26.050Z,18.71
2023-07-25T23:29:52.681Z,18.69
2023-07-25T23:32:19.256Z,18.68
2023-07-25T23:34:48.183Z,18.67
2023-07-25T23:37:15.259Z,18.64
2023-07-25T23:39:42.228Z,18.63
2023-07-25T23:42:08.845Z,18.68
2023-07-25T23:44:35.847Z,18.67
2023-07-25T23:47:03.876Z,18.71
2023-07-25T23:49:31.018Z,18.73
2023-07-25T23:51:57.725Z,18.68
2023-07-25T23:54:24.336Z,18.66
2023-07-25T23:56:51.788Z,18.69
2023-07-25T23:59:18.481Z,18.72
